sensor_id;sensor_type;location;lat;lon;timestamp;temperature;humidity
54576;DHT22;40472;53.486;14.542;2023-04-15T00:01:39;9.00;99.90
54576;DHT22;40472;53.486;14.542;2023-04-15T00:04:04;9.00;99.90
54576;DHT22;40472;53.486;14.542;2023-04-15T00:06:30;9.00;99.90
54576;DHT22;40472;53.486;14.542;2023-04-15T00:08:58;9.00;99.90
54576;DHT22;40472;53.486;14.542;2023-04-15T00:11:24;8.90;99.90
54576;DHT22;40472;53.486;14.542;2023-04-15T00:13:50;8.80;99.90
54576;DHT22;40472;53.486;14.542;2023-04-15T00:16:16;8.70;99.90
54576;DHT22;40472;53.486;14.542;2023-04-15T00:18:42;8.70;99.90
54576;DHT22;40472;53.486;14.542;2023-04-15T00:21:07;8.60;99.90
54576;DHT22;40472;53.486;14.542;2023-04-15T00:23:34;8.60;99.90
54576;DHT22;40472;53.486;14.542;2023-04-15T00:26:01;8.60;99.90
54576;DHT22;40472;53.486;14.542;2023-04-15T00:28:27;8.50;99.90
54576;DHT22;40472;53.486;14.542;2023-04-15T00:30:53;8.40;99.90
54576;DHT22;40472;53.486;14.542;2023-04-15T00:33:19;8.40;99.90
54576;DHT22;40472;53.486;14.542;2023-04-15T00:35:45;8.30;99.90
54576;DHT22;40472;53.486;14.542;2023-04-15T00:38:11;8.30;99.90
54576;DHT22;40472;53.486;14.542;2023-04-15T00:40:38;8.30;99.90
54576;DHT22;40472;53.486;14.542;2023-04-15T00:43:03;8.20;99.90
54576;DHT22;40472;53.486;14.542;2023-04-15T00:45:30;8.20;99.90
54576;DHT22;40472;53.486;14.542;2023-04-15T00:47:56;8.10;99.90
54576;DHT22;40472;53.486;14.542;2023-04-15T00:50:23;8.10;99.90
54576;DHT22;40472;53.486;14.542;2023-04-15T00:52:50;8.00;99.90
54576;DHT22;40472;53.486;14.542;2023-04-15T00:55:16;8.10;99.90
54576;DHT22;40472;53.486;14.542;2023-04-15T00:57:43;8.10;99.90
54576;DHT22;40472;53.486;14.542;2023-04-15T01:00:09;8.00;99.90
54576;DHT22;40472;53.486;14.542;2023-04-15T01:02:36;8.00;99.90
54576;DHT22;40472;53.486;14.542;2023-04-15T01:05:05;8.00;99.90
54576;DHT22;40472;53.486;14.542;2023-04-15T01:07:32;8.00;99.90
54576;DHT22;40472;53.486;14.542;2023-04-15T01:09:58;8.00;99.90
54576;DHT22;40472;53.486;14.542;2023-04-15T01:12:26;7.90;99.90
54576;DHT22;40472;53.486;14.542;2023-04-15T01:14:55;7.90;99.90
54576;DHT22;40472;53.486;14.542;2023-04-15T01:17:23;7.80;99.90
54576;DHT22;40472;53.486;14.542;2023-04-15T01:19:50;7.70;99.90
54576;DHT22;40472;53.486;14.542;2023-04-15T01:22:16;7.80;99.90
54576;DHT22;40472;53.486;14.542;2023-04-15T01:25:11;7.70;99.90
54576;DHT22;40472;53.486;14.542;2023-04-15T01:27:38;7.70;99.90
54576;DHT22;40472;53.486;14.542;2023-04-15T01:30:07;7.70;99.90
54576;DHT22;40472;53.486;14.542;2023-04-15T01:32:33;7.80;99.90
54576;DHT22;40472;53.486;14.542;2023-04-15T01:34:59;7.90;99.90
54576;DHT22;40472;53.486;14.542;2023-04-15T01:37:25;7.90;99.90
54576;DHT22;40472;53.486;14.542;2023-04-15T01:39:51;7.90;99.90
54576;DHT22;40472;53.486;14.542;2023-04-15T01:42:17;7.90;99.90
54576;DHT22;40472;53.486;14.542;2023-04-15T01:44:43;7.90;99.90
54576;DHT22;40472;53.486;14.542;2023-04-15T01:47:09;7.90;99.90
54576;DHT22;40472;53.486;14.542;2023-04-15T01:49:35;7.90;99.90
54576;DHT22;40472;53.486;14.542;2023-04-15T01:52:01;7.90;99.90
54576;DHT22;40472;53.486;14.542;2023-04-15T01:54:27;7.90;99.90
54576;DHT22;40472;53.486;14.542;2023-04-15T01:56:53;7.90;99.90
54576;DHT22;40472;53.486;14.542;2023-04-15T01:59:18;7.90;99.90
54576;DHT22;40472;53.486;14.542;2023-04-15T02:01:44;7.90;99.90
54576;DHT22;40472;53.486;14.542;2023-04-15T02:04:11;7.90;99.90
54576;DHT22;40472;53.486;14.542;2023-04-15T02:06:44;7.90;99.90
54576;DHT22;40472;53.486;14.542;2023-04-15T02:09:11;7.90;99.90
54576;DHT22;40472;53.486;14.542;2023-04-15T02:11:36;7.90;99.90
54576;DHT22;40472;53.486;14.542;2023-04-15T02:14:03;7.90;99.90
54576;DHT22;40472;53.486;14.542;2023-04-15T02:16:31;7.90;99.90
54576;DHT22;40472;53.486;14.542;2023-04-15T02:18:58;7.90;99.90
54576;DHT22;40472;53.486;14.542;2023-04-15T02:21:25;7.90;99.90
54576;DHT22;40472;53.486;14.542;2023-04-15T02:23:51;7.90;99.90
54576;DHT22;40472;53.486;14.542;2023-04-15T02:26:18;7.90;99.90
54576;DHT22;40472;53.486;14.542;2023-04-15T02:28:45;7.80;99.90
54576;DHT22;40472;53.486;14.542;2023-04-15T02:31:11;7.80;99.90
54576;DHT22;40472;53.486;14.542;2023-04-15T02:33:37;7.90;99.90
54576;DHT22;40472;53.486;14.542;2023-04-15T02:36:03;7.80;99.90
54576;DHT22;40472;53.486;14.542;2023-04-15T02:38:29;7.90;99.90
54576;DHT22;40472;53.486;14.542;2023-04-15T02:40:56;7.90;99.90
54576;DHT22;40472;53.486;14.542;2023-04-15T02:43:22;7.90;99.90
54576;DHT22;40472;53.486;14.542;2023-04-15T02:45:48;7.80;99.90
54576;DHT22;40472;53.486;14.542;2023-04-15T02:48:14;7.80;99.90
54576;DHT22;40472;53.486;14.542;2023-04-15T02:50:42;7.80;99.90
54576;DHT22;40472;53.486;14.542;2023-04-15T02:53:08;7.80;99.90
54576;DHT22;40472;53.486;14.542;2023-04-15T02:55:34;7.80;99.90
54576;DHT22;40472;53.486;14.542;2023-04-15T02:57:59;7.70;99.90
54576;DHT22;40472;53.486;14.542;2023-04-15T03:00:26;7.70;99.90
54576;DHT22;40472;53.486;14.542;2023-04-15T03:02:58;7.60;99.90
54576;DHT22;40472;53.486;14.542;2023-04-15T03:05:24;7.70;99.90
54576;DHT22;40472;53.486;14.542;2023-04-15T03:07:50;7.60;99.90
54576;DHT22;40472;53.486;14.542;2023-04-15T03:10:16;7.60;99.90
54576;DHT22;40472;53.486;14.542;2023-04-15T03:12:42;7.60;99.90
54576;DHT22;40472;53.486;14.542;2023-04-15T03:15:08;7.60;99.90
54576;DHT22;40472;53.486;14.542;2023-04-15T03:17:34;7.60;99.90
54576;DHT22;40472;53.486;14.542;2023-04-15T03:20:01;7.50;99.90
54576;DHT22;40472;53.486;14.542;2023-04-15T03:22:28;7.50;99.90
54576;DHT22;40472;53.486;14.542;2023-04-15T03:24:54;7.50;99.90
54576;DHT22;40472;53.486;14.542;2023-04-15T03:27:19;7.40;99.90
54576;DHT22;40472;53.486;14.542;2023-04-15T03:29:45;7.40;99.90
54576;DHT22;40472;53.486;14.542;2023-04-15T03:32:11;7.40;99.90
54576;DHT22;40472;53.486;14.542;2023-04-15T03:34:37;7.40;99.90
54576;DHT22;40472;53.486;14.542;2023-04-15T03:37:02;7.40;99.90
54576;DHT22;40472;53.486;14.542;2023-04-15T03:39:28;7.40;99.90
54576;DHT22;40472;53.486;14.542;2023-04-15T03:41:54;7.30;99.90
54576;DHT22;40472;53.486;14.542;2023-04-15T03:44:20;7.30;99.90
54576;DHT22;40472;53.486;14.542;2023-04-15T03:46:46;7.30;99.90
54576;DHT22;40472;53.486;14.542;2023-04-15T03:49:12;7.20;99.90
54576;DHT22;40472;53.486;14.542;2023-04-15T03:51:38;7.30;99.90
54576;DHT22;40472;53.486;14.542;2023-04-15T03:54:04;7.30;99.90
54576;DHT22;40472;53.486;14.542;2023-04-15T03:56:30;7.30;99.90
54576;DHT22;40472;53.486;14.542;2023-04-15T03:58:55;7.20;99.90
54576;DHT22;40472;53.486;14.542;2023-04-15T04:01:21;7.30;99.90
54576;DHT22;40472;53.486;14.542;2023-04-15T04:03:47;7.30;99.90
54576;DHT22;40472;53.486;14.542;2023-04-15T04:06:14;7.20;99.90
54576;DHT22;40472;53.486;14.542;2023-04-15T04:08:40;7.20;99.90
54576;DHT22;40472;53.486;14.542;2023-04-15T04:11:06;7.10;99.90
54576;DHT22;40472;53.486;14.542;2023-04-15T04:13:31;7.20;99.90
54576;DHT22;40472;53.486;14.542;2023-04-15T04:15:57;7.10;99.90
54576;DHT22;40472;53.486;14.542;2023-04-15T04:18:23;7.10;99.90
54576;DHT22;40472;53.486;14.542;2023-04-15T04:20:48;7.20;99.90
54576;DHT22;40472;53.486;14.542;2023-04-15T04:23:14;7.20;99.90
54576;DHT22;40472;53.486;14.542;2023-04-15T04:25:40;7.20;99.90
54576;DHT22;40472;53.486;14.542;2023-04-15T04:28:06;7.10;99.90
54576;DHT22;40472;53.486;14.542;2023-04-15T04:30:31;7.20;99.90
54576;DHT22;40472;53.486;14.542;2023-04-15T04:32:57;7.20;99.90
54576;DHT22;40472;53.486;14.542;2023-04-15T04:35:23;7.20;99.90
54576;DHT22;40472;53.486;14.542;2023-04-15T04:37:49;7.20;99.90
54576;DHT22;40472;53.486;14.542;2023-04-15T04:40:15;7.20;99.90
54576;DHT22;40472;53.486;14.542;2023-04-15T04:42:41;7.20;99.90
54576;DHT22;40472;53.486;14.542;2023-04-15T04:45:07;7.30;99.90
54576;DHT22;40472;53.486;14.542;2023-04-15T04:47:33;7.30;99.90
54576;DHT22;40472;53.486;14.542;2023-04-15T04:49:58;7.30;99.90
54576;DHT22;40472;53.486;14.542;2023-04-15T04:52:24;7.30;99.90
54576;DHT22;40472;53.486;14.542;2023-04-15T04:54:50;7.30;99.90
54576;DHT22;40472;53.486;14.542;2023-04-15T04:57:16;7.40;99.90
54576;DHT22;40472;53.486;14.542;2023-04-15T04:59:42;7.40;99.90
54576;DHT22;40472;53.486;14.542;2023-04-15T05:02:08;7.40;99.90
54576;DHT22;40472;53.486;14.542;2023-04-15T05:04:34;7.40;99.90
54576;DHT22;40472;53.486;14.542;2023-04-15T05:07:01;7.40;99.90
54576;DHT22;40472;53.486;14.542;2023-04-15T05:09:27;7.40;99.90
54576;DHT22;40472;53.486;14.542;2023-04-15T05:11:54;7.50;99.90
54576;DHT22;40472;53.486;14.542;2023-04-15T05:14:21;7.60;99.90
54576;DHT22;40472;53.486;14.542;2023-04-15T05:16:46;7.60;99.90
54576;DHT22;40472;53.486;14.542;2023-04-15T05:19:12;7.60;99.90
54576;DHT22;40472;53.486;14.542;2023-04-15T05:21:38;7.60;99.90
54576;DHT22;40472;53.486;14.542;2023-04-15T05:24:03;7.70;99.90
54576;DHT22;40472;53.486;14.542;2023-04-15T05:26:29;7.80;99.90
54576;DHT22;40472;53.486;14.542;2023-04-15T05:28:55;7.80;99.90
54576;DHT22;40472;53.486;14.542;2023-04-15T05:31:21;7.80;99.90
54576;DHT22;40472;53.486;14.542;2023-04-15T05:33:47;7.80;99.90
54576;DHT22;40472;53.486;14.542;2023-04-15T05:36:13;7.90;99.90
54576;DHT22;40472;53.486;14.542;2023-04-15T05:38:39;7.90;99.90
54576;DHT22;40472;53.486;14.542;2023-04-15T05:41:05;7.90;99.90
54576;DHT22;40472;53.486;14.542;2023-04-15T05:43:31;8.00;99.90
54576;DHT22;40472;53.486;14.542;2023-04-15T05:45:56;8.10;99.90
54576;DHT22;40472;53.486;14.542;2023-04-15T05:48:22;8.10;99.90
54576;DHT22;40472;53.486;14.542;2023-04-15T05:50:48;8.20;99.90
54576;DHT22;40472;53.486;14.542;2023-04-15T05:53:14;8.20;99.90
54576;DHT22;40472;53.486;14.542;2023-04-15T05:55:39;8.10;99.90
54576;DHT22;40472;53.486;14.542;2023-04-15T05:58:05;8.30;99.90
54576;DHT22;40472;53.486;14.542;2023-04-15T06:00:31;8.20;99.90
54576;DHT22;40472;53.486;14.542;2023-04-15T06:02:57;8.40;99.90
54576;DHT22;40472;53.486;14.542;2023-04-15T06:05:23;8.40;99.90
54576;DHT22;40472;53.486;14.542;2023-04-15T06:07:49;8.40;99.90
54576;DHT22;40472;53.486;14.542;2023-04-15T06:10:15;8.40;99.90
54576;DHT22;40472;53.486;14.542;2023-04-15T06:12:41;8.60;99.90
54576;DHT22;40472;53.486;14.542;2023-04-15T06:15:08;8.50;99.90
54576;DHT22;40472;53.486;14.542;2023-04-15T06:17:37;8.60;99.90
54576;DHT22;40472;53.486;14.542;2023-04-15T06:20:03;8.70;99.90
54576;DHT22;40472;53.486;14.542;2023-04-15T06:22:29;8.70;99.90
54576;DHT22;40472;53.486;14.542;2023-04-15T06:24:55;8.80;99.90
54576;DHT22;40472;53.486;14.542;2023-04-15T06:27:21;8.90;99.90
54576;DHT22;40472;53.486;14.542;2023-04-15T06:29:47;8.90;99.90
54576;DHT22;40472;53.486;14.542;2023-04-15T06:32:13;8.90;99.90
54576;DHT22;40472;53.486;14.542;2023-04-15T06:34:39;8.90;99.90
54576;DHT22;40472;53.486;14.542;2023-04-15T06:37:05;8.90;99.90
54576;DHT22;40472;53.486;14.542;2023-04-15T06:39:31;9.10;99.90
54576;DHT22;40472;53.486;14.542;2023-04-15T06:41:57;9.10;99.90
54576;DHT22;40472;53.486;14.542;2023-04-15T06:44:22;9.20;99.90
54576;DHT22;40472;53.486;14.542;2023-04-15T06:46:48;9.20;99.90
54576;DHT22;40472;53.486;14.542;2023-04-15T06:49:14;9.20;99.90
54576;DHT22;40472;53.486;14.542;2023-04-15T06:51:41;9.30;99.90
54576;DHT22;40472;53.486;14.542;2023-04-15T06:54:07;9.40;99.90
54576;DHT22;40472;53.486;14.542;2023-04-15T06:56:33;9.40;99.90
54576;DHT22;40472;53.486;14.542;2023-04-15T06:58:59;9.40;99.90
54576;DHT22;40472;53.486;14.542;2023-04-15T07:01:25;9.40;99.90
54576;DHT22;40472;53.486;14.542;2023-04-15T07:03:51;9.40;99.90
54576;DHT22;40472;53.486;14.542;2023-04-15T07:06:17;9.40;99.90
54576;DHT22;40472;53.486;14.542;2023-04-15T07:08:42;9.60;99.90
54576;DHT22;40472;53.486;14.542;2023-04-15T07:11:08;9.50;99.90
54576;DHT22;40472;53.486;14.542;2023-04-15T07:13:34;9.70;99.90
54576;DHT22;40472;53.486;14.542;2023-04-15T07:16:00;9.70;99.90
54576;DHT22;40472;53.486;14.542;2023-04-15T07:18:26;9.70;99.90
54576;DHT22;40472;53.486;14.542;2023-04-15T07:20:52;9.90;99.90
54576;DHT22;40472;53.486;14.542;2023-04-15T07:23:18;9.90;99.90
54576;DHT22;40472;53.486;14.542;2023-04-15T07:25:44;10.00;99.90
54576;DHT22;40472;53.486;14.542;2023-04-15T07:28:10;10.20;99.90
54576;DHT22;40472;53.486;14.542;2023-04-15T07:30:36;10.20;99.90
54576;DHT22;40472;53.486;14.542;2023-04-15T07:33:01;10.20;99.90
54576;DHT22;40472;53.486;14.542;2023-04-15T07:35:28;10.30;99.90
54576;DHT22;40472;53.486;14.542;2023-04-15T07:37:54;10.20;99.90
54576;DHT22;40472;53.486;14.542;2023-04-15T07:40:19;10.30;99.90
54576;DHT22;40472;53.486;14.542;2023-04-15T07:42:47;10.30;99.90
54576;DHT22;40472;53.486;14.542;2023-04-15T07:45:14;10.30;99.90
54576;DHT22;40472;53.486;14.542;2023-04-15T07:47:40;10.30;99.90
54576;DHT22;40472;53.486;14.542;2023-04-15T07:50:08;10.40;99.90
54576;DHT22;40472;53.486;14.542;2023-04-15T07:52:34;10.40;99.90
54576;DHT22;40472;53.486;14.542;2023-04-15T07:55:07;10.50;99.90
54576;DHT22;40472;53.486;14.542;2023-04-15T07:57:34;10.50;99.90
54576;DHT22;40472;53.486;14.542;2023-04-15T08:00:00;10.50;99.90
54576;DHT22;40472;53.486;14.542;2023-04-15T08:02:27;10.40;99.90
54576;DHT22;40472;53.486;14.542;2023-04-15T08:04:53;10.40;99.90
54576;DHT22;40472;53.486;14.542;2023-04-15T08:07:19;10.40;99.90
54576;DHT22;40472;53.486;14.542;2023-04-15T08:09:44;10.50;99.90
54576;DHT22;40472;53.486;14.542;2023-04-15T08:12:10;10.50;99.90
54576;DHT22;40472;53.486;14.542;2023-04-15T08:14:38;10.40;99.90
54576;DHT22;40472;53.486;14.542;2023-04-15T08:17:04;10.30;99.90
54576;DHT22;40472;53.486;14.542;2023-04-15T08:19:30;10.30;99.90
54576;DHT22;40472;53.486;14.542;2023-04-15T08:21:56;10.40;99.90
54576;DHT22;40472;53.486;14.542;2023-04-15T08:24:23;10.60;99.90
54576;DHT22;40472;53.486;14.542;2023-04-15T08:26:51;10.50;99.90
54576;DHT22;40472;53.486;14.542;2023-04-15T08:29:17;10.60;99.90
54576;DHT22;40472;53.486;14.542;2023-04-15T08:31:43;10.60;99.90
54576;DHT22;40472;53.486;14.542;2023-04-15T08:34:10;10.60;99.90
54576;DHT22;40472;53.486;14.542;2023-04-15T08:36:37;10.60;99.90
54576;DHT22;40472;53.486;14.542;2023-04-15T08:39:03;10.50;99.90
54576;DHT22;40472;53.486;14.542;2023-04-15T08:41:38;10.50;99.90
54576;DHT22;40472;53.486;14.542;2023-04-15T08:44:05;10.40;99.90
54576;DHT22;40472;53.486;14.542;2023-04-15T08:46:32;10.50;99.90
54576;DHT22;40472;53.486;14.542;2023-04-15T08:49:00;10.60;99.90
54576;DHT22;40472;53.486;14.542;2023-04-15T08:51:28;10.70;99.90
54576;DHT22;40472;53.486;14.542;2023-04-15T08:53:54;10.60;99.90
54576;DHT22;40472;53.486;14.542;2023-04-15T08:56:24;10.60;99.90
54576;DHT22;40472;53.486;14.542;2023-04-15T08:58:51;10.70;99.90
54576;DHT22;40472;53.486;14.542;2023-04-15T09:01:17;10.60;99.90
54576;DHT22;40472;53.486;14.542;2023-04-15T09:03:43;10.50;99.90
54576;DHT22;40472;53.486;14.542;2023-04-15T09:06:10;10.50;99.90
54576;DHT22;40472;53.486;14.542;2023-04-15T09:08:36;10.60;99.90
54576;DHT22;40472;53.486;14.542;2023-04-15T09:11:03;10.70;99.90
54576;DHT22;40472;53.486;14.542;2023-04-15T09:13:29;10.80;99.90
54576;DHT22;40472;53.486;14.542;2023-04-15T09:15:55;10.90;99.90
54576;DHT22;40472;53.486;14.542;2023-04-15T09:18:30;10.90;99.90
54576;DHT22;40472;53.486;14.542;2023-04-15T09:21:06;10.90;99.90
54576;DHT22;40472;53.486;14.542;2023-04-15T09:23:34;10.80;99.90
54576;DHT22;40472;53.486;14.542;2023-04-15T09:26:04;10.70;99.90
54576;DHT22;40472;53.486;14.542;2023-04-15T09:28:31;10.60;99.90
54576;DHT22;40472;53.486;14.542;2023-04-15T09:31:01;10.70;99.90
54576;DHT22;40472;53.486;14.542;2023-04-15T09:33:28;10.60;99.90
54576;DHT22;40472;53.486;14.542;2023-04-15T09:36:03;10.60;99.90
54576;DHT22;40472;53.486;14.542;2023-04-15T09:38:30;10.60;99.90
54576;DHT22;40472;53.486;14.542;2023-04-15T09:40:57;10.50;99.90
54576;DHT22;40472;53.486;14.542;2023-04-15T09:43:39;10.60;99.90
54576;DHT22;40472;53.486;14.542;2023-04-15T09:46:05;10.60;99.90
54576;DHT22;40472;53.486;14.542;2023-04-15T09:48:31;10.60;99.90
54576;DHT22;40472;53.486;14.542;2023-04-15T09:50:57;10.60;99.90
54576;DHT22;40472;53.486;14.542;2023-04-15T09:53:24;10.60;99.90
54576;DHT22;40472;53.486;14.542;2023-04-15T09:55:55;10.60;99.90
54576;DHT22;40472;53.486;14.542;2023-04-15T09:58:23;10.60;99.90
54576;DHT22;40472;53.486;14.542;2023-04-15T10:00:50;10.50;99.90
54576;DHT22;40472;53.486;14.542;2023-04-15T10:05:52;10.50;99.90
54576;DHT22;40472;53.486;14.542;2023-04-15T10:08:20;10.50;99.90
54576;DHT22;40472;53.486;14.542;2023-04-15T10:10:47;10.50;99.90
54576;DHT22;40472;53.486;14.542;2023-04-15T10:13:25;10.50;99.90
54576;DHT22;40472;53.486;14.542;2023-04-15T10:16:13;10.50;99.90
54576;DHT22;40472;53.486;14.542;2023-04-15T10:18:44;10.50;99.90
54576;DHT22;40472;53.486;14.542;2023-04-15T10:21:10;10.40;99.90
54576;DHT22;40472;53.486;14.542;2023-04-15T10:23:38;10.40;99.90
54576;DHT22;40472;53.486;14.542;2023-04-15T10:26:05;10.40;99.90
54576;DHT22;40472;53.486;14.542;2023-04-15T10:28:31;10.40;99.90
54576;DHT22;40472;53.486;14.542;2023-04-15T10:30:58;10.40;99.90
54576;DHT22;40472;53.486;14.542;2023-04-15T10:33:24;10.50;99.90
54576;DHT22;40472;53.486;14.542;2023-04-15T10:35:52;10.50;99.90
54576;DHT22;40472;53.486;14.542;2023-04-15T10:41:16;10.40;99.90
54576;DHT22;40472;53.486;14.542;2023-04-15T10:43:56;10.40;99.90
54576;DHT22;40472;53.486;14.542;2023-04-15T10:46:36;10.30;99.90
54576;DHT22;40472;53.486;14.542;2023-04-15T10:49:14;10.40;99.90
54576;DHT22;40472;53.486;14.542;2023-04-15T10:52:00;10.50;99.90
54576;DHT22;40472;53.486;14.542;2023-04-15T10:59:28;10.70;99.90
54576;DHT22;40472;53.486;14.542;2023-04-15T11:01:59;10.60;99.90
54576;DHT22;40472;53.486;14.542;2023-04-15T11:04:50;10.60;99.90
54576;DHT22;40472;53.486;14.542;2023-04-15T11:10:02;10.50;99.90
54576;DHT22;40472;53.486;14.542;2023-04-15T11:12:35;10.40;99.90
54576;DHT22;40472;53.486;14.542;2023-04-15T11:15:24;10.40;99.90
54576;DHT22;40472;53.486;14.542;2023-04-15T11:17:52;10.50;99.90
54576;DHT22;40472;53.486;14.542;2023-04-15T11:20:18;10.60;99.90
54576;DHT22;40472;53.486;14.542;2023-04-15T11:22:51;10.60;99.90
54576;DHT22;40472;53.486;14.542;2023-04-15T11:25:26;10.60;99.90
54576;DHT22;40472;53.486;14.542;2023-04-15T11:27:53;10.60;99.90
54576;DHT22;40472;53.486;14.542;2023-04-15T11:30:24;10.60;99.90
54576;DHT22;40472;53.486;14.542;2023-04-15T11:32:52;10.60;99.90
54576;DHT22;40472;53.486;14.542;2023-04-15T11:35:18;10.50;99.90
54576;DHT22;40472;53.486;14.542;2023-04-15T11:37:45;10.60;99.90
54576;DHT22;40472;53.486;14.542;2023-04-15T11:40:12;10.60;99.90
54576;DHT22;40472;53.486;14.542;2023-04-15T11:42:40;10.50;99.90
54576;DHT22;40472;53.486;14.542;2023-04-15T11:45:15;10.60;99.90
54576;DHT22;40472;53.486;14.542;2023-04-15T11:47:41;10.50;99.90
54576;DHT22;40472;53.486;14.542;2023-04-15T11:50:21;10.50;99.90
54576;DHT22;40472;53.486;14.542;2023-04-15T11:52:58;10.50;99.90
54576;DHT22;40472;53.486;14.542;2023-04-15T11:55:25;10.50;99.90
54576;DHT22;40472;53.486;14.542;2023-04-15T12:00:31;10.50;99.90
54576;DHT22;40472;53.486;14.542;2023-04-15T12:06:23;10.50;99.90
54576;DHT22;40472;53.486;14.542;2023-04-15T12:11:44;10.50;99.90
54576;DHT22;40472;53.486;14.542;2023-04-15T12:16:48;10.60;99.90
54576;DHT22;40472;53.486;14.542;2023-04-15T12:19:15;10.60;99.90
54576;DHT22;40472;53.486;14.542;2023-04-15T12:21:44;10.60;99.90
54576;DHT22;40472;53.486;14.542;2023-04-15T12:24:11;10.50;99.90
54576;DHT22;40472;53.486;14.542;2023-04-15T12:26:48;10.50;99.90
54576;DHT22;40472;53.486;14.542;2023-04-15T12:29:16;10.50;99.90
54576;DHT22;40472;53.486;14.542;2023-04-15T12:34:31;10.60;99.90
54576;DHT22;40472;53.486;14.542;2023-04-15T12:36:59;10.70;99.90
54576;DHT22;40472;53.486;14.542;2023-04-15T12:39:27;10.70;99.90
54576;DHT22;40472;53.486;14.542;2023-04-15T12:41:54;10.70;99.90
54576;DHT22;40472;53.486;14.542;2023-04-15T12:44:22;10.70;99.90
54576;DHT22;40472;53.486;14.542;2023-04-15T12:46:49;10.80;99.90
54576;DHT22;40472;53.486;14.542;2023-04-15T12:49:17;10.70;99.90
54576;DHT22;40472;53.486;14.542;2023-04-15T12:51:55;10.70;99.90
54576;DHT22;40472;53.486;14.542;2023-04-15T12:54:22;10.80;99.90
54576;DHT22;40472;53.486;14.542;2023-04-15T12:56:49;10.80;99.90
54576;DHT22;40472;53.486;14.542;2023-04-15T12:59:16;11.00;99.90
54576;DHT22;40472;53.486;14.542;2023-04-15T13:01:47;11.00;99.90
54576;DHT22;40472;53.486;14.542;2023-04-15T13:04:14;11.10;99.90
54576;DHT22;40472;53.486;14.542;2023-04-15T13:06:40;11.00;99.90
54576;DHT22;40472;53.486;14.542;2023-04-15T13:09:06;11.10;99.90
54576;DHT22;40472;53.486;14.542;2023-04-15T13:11:32;11.20;99.90
54576;DHT22;40472;53.486;14.542;2023-04-15T13:13:59;11.30;99.90
54576;DHT22;40472;53.486;14.542;2023-04-15T13:16:25;11.30;99.90
54576;DHT22;40472;53.486;14.542;2023-04-15T13:18:51;11.30;99.90
54576;DHT22;40472;53.486;14.542;2023-04-15T13:21:18;11.30;99.90
54576;DHT22;40472;53.486;14.542;2023-04-15T13:23:43;11.20;99.90
54576;DHT22;40472;53.486;14.542;2023-04-15T13:26:09;11.20;99.90
54576;DHT22;40472;53.486;14.542;2023-04-15T13:28:35;11.20;99.90
54576;DHT22;40472;53.486;14.542;2023-04-15T13:31:05;11.40;99.90
54576;DHT22;40472;53.486;14.542;2023-04-15T13:33:30;11.50;99.90
54576;DHT22;40472;53.486;14.542;2023-04-15T13:35:56;11.50;99.90
54576;DHT22;40472;53.486;14.542;2023-04-15T13:38:23;11.50;99.90
54576;DHT22;40472;53.486;14.542;2023-04-15T13:40:50;11.40;99.90
54576;DHT22;40472;53.486;14.542;2023-04-15T13:43:16;11.40;99.90
54576;DHT22;40472;53.486;14.542;2023-04-15T13:45:46;11.50;99.90
54576;DHT22;40472;53.486;14.542;2023-04-15T13:48:12;11.50;99.90
54576;DHT22;40472;53.486;14.542;2023-04-15T13:50:38;11.60;99.90
54576;DHT22;40472;53.486;14.542;2023-04-15T13:53:04;11.50;99.90
54576;DHT22;40472;53.486;14.542;2023-04-15T13:55:30;11.50;99.90
54576;DHT22;40472;53.486;14.542;2023-04-15T13:57:56;11.50;99.90
54576;DHT22;40472;53.486;14.542;2023-04-15T14:00:22;11.40;99.90
54576;DHT22;40472;53.486;14.542;2023-04-15T14:02:48;11.40;99.90
54576;DHT22;40472;53.486;14.542;2023-04-15T14:05:13;11.30;99.90
54576;DHT22;40472;53.486;14.542;2023-04-15T14:07:40;11.30;99.90
54576;DHT22;40472;53.486;14.542;2023-04-15T14:10:07;11.20;99.90
54576;DHT22;40472;53.486;14.542;2023-04-15T14:12:32;11.20;99.90
54576;DHT22;40472;53.486;14.542;2023-04-15T14:14:58;11.20;99.90
54576;DHT22;40472;53.486;14.542;2023-04-15T14:17:24;11.20;99.90
54576;DHT22;40472;53.486;14.542;2023-04-15T14:19:50;11.20;99.90
54576;DHT22;40472;53.486;14.542;2023-04-15T14:22:16;11.20;99.90
54576;DHT22;40472;53.486;14.542;2023-04-15T14:24:43;11.20;99.90
54576;DHT22;40472;53.486;14.542;2023-04-15T14:27:10;11.20;99.90
54576;DHT22;40472;53.486;14.542;2023-04-15T14:29:37;11.10;99.90
54576;DHT22;40472;53.486;14.542;2023-04-15T14:32:03;11.10;99.90
54576;DHT22;40472;53.486;14.542;2023-04-15T14:34:29;11.10;99.90
54576;DHT22;40472;53.486;14.542;2023-04-15T14:36:55;11.00;99.90
54576;DHT22;40472;53.486;14.542;2023-04-15T14:39:21;11.00;99.90
54576;DHT22;40472;53.486;14.542;2023-04-15T14:41:47;10.90;99.90
54576;DHT22;40472;53.486;14.542;2023-04-15T14:44:13;10.90;99.90
54576;DHT22;40472;53.486;14.542;2023-04-15T14:46:39;10.90;99.90
54576;DHT22;40472;53.486;14.542;2023-04-15T14:49:05;11.10;99.90
54576;DHT22;40472;53.486;14.542;2023-04-15T14:51:32;11.00;99.90
54576;DHT22;40472;53.486;14.542;2023-04-15T14:53:58;11.10;99.90
54576;DHT22;40472;53.486;14.542;2023-04-15T14:56:24;11.00;99.90
54576;DHT22;40472;53.486;14.542;2023-04-15T14:58:50;11.00;99.90
54576;DHT22;40472;53.486;14.542;2023-04-15T15:01:18;10.90;99.90
54576;DHT22;40472;53.486;14.542;2023-04-15T15:03:43;10.90;99.90
54576;DHT22;40472;53.486;14.542;2023-04-15T15:06:09;10.90;99.90
54576;DHT22;40472;53.486;14.542;2023-04-15T15:08:35;10.90;99.90
54576;DHT22;40472;53.486;14.542;2023-04-15T15:11:01;10.90;99.90
54576;DHT22;40472;53.486;14.542;2023-04-15T15:13:27;10.90;99.90
54576;DHT22;40472;53.486;14.542;2023-04-15T15:15:59;10.90;99.90
54576;DHT22;40472;53.486;14.542;2023-04-15T15:18:35;11.00;99.90
54576;DHT22;40472;53.486;14.542;2023-04-15T15:21:01;10.90;99.90
54576;DHT22;40472;53.486;14.542;2023-04-15T15:23:27;10.80;99.90
54576;DHT22;40472;53.486;14.542;2023-04-15T15:25:53;10.80;99.90
54576;DHT22;40472;53.486;14.542;2023-04-15T15:28:19;10.80;99.90
54576;DHT22;40472;53.486;14.542;2023-04-15T15:30:46;10.80;99.90
54576;DHT22;40472;53.486;14.542;2023-04-15T15:33:13;10.70;99.90
54576;DHT22;40472;53.486;14.542;2023-04-15T15:35:39;10.80;99.90
54576;DHT22;40472;53.486;14.542;2023-04-15T15:38:05;10.70;99.90
54576;DHT22;40472;53.486;14.542;2023-04-15T15:40:31;10.70;99.90
54576;DHT22;40472;53.486;14.542;2023-04-15T15:42:57;10.60;99.90
54576;DHT22;40472;53.486;14.542;2023-04-15T15:45:22;10.70;99.90
54576;DHT22;40472;53.486;14.542;2023-04-15T15:47:48;10.80;99.90
54576;DHT22;40472;53.486;14.542;2023-04-15T15:50:15;10.70;99.90